Valiant — WCY6766 — position and weather

sailwx.info

Track history (hours):
 
Tides and Currents Weather Stations Pressure Air Temp Water Temp Dewpoint Dewpoint Depression Visibility Wind Speed Wind Dir Waves Ship Positions

Valiant

Owner: PENN MARITIME INC, SEATTLE, WA. More information available from US FCC via Universal Licensing System and Coast Guard Vessel Documentation Center.

Last reported at 2014-Oct-29 10:03 UTC. Time now 2014-Nov-01 00:31 UTC.
Position N 29°15' W 094°42'.

Length 165 m; draft 6.6 m.

Type: Cargo ship. MMSI: 369350000.

Date/timePositionNaut miles runAvg speedWind from/ knotsBaromVisibWave heightAir tempDewpointWater temp
2014-Oct-29 10:03N 29°15' W 094°42'0 0.0
2014-Oct-29 08:33N 29°15' W 094°42'5 4.0
2014-Oct-29 07:19N 29°18' W 094°38'8 8.7
2014-Oct-29 06:23N 29°21' W 094°46'7 8.6
2014-Oct-29 05:33N 29°27' W 094°50'9 8.6
2014-Oct-29 04:33N 29°34' W 094°55'9 8.9
2014-Oct-29 03:33N 29°42' W 095°00'6 5.8
2014-Oct-29 02:33N 29°44' W 095°07'1 0.1
2014-Oct-28 14:09N 29°44' W 095°07'0 0.0
2014-Oct-28 13:24N 29°44' W 095°07'3 0.2
2014-Oct-27 22:33N 29°45' W 095°04'8 8.5
2014-Oct-27 21:33N 29°38' W 094°58'27 1.9
2014-Oct-27 07:14N 29°15' W 094°43'0 0.0
2014-Oct-26 17:17N 29°15' W 094°43'0 0.0
2014-Oct-26 06:29N 29°15' W 094°43'0 0.0
2014-Oct-25 17:29N 29°15' W 094°42'6 5.0
2014-Oct-25 16:18N 29°21' W 094°44'8 9.4
2014-Oct-25 15:30N 29°23' W 094°52'3 0.1
2014-Oct-24 06:30N 29°23' W 094°49'9 9.3
2014-Oct-24 05:33N 29°31' W 094°53'9 9.1
2014-Oct-24 04:33N 29°39' W 094°58'9 8.4
2014-Oct-24 03:33N 29°46' W 095°05'2 0.1
2014-Oct-23 02:10N 29°44' W 095°07'3 5.7
2014-Oct-23 01:33N 29°44' W 095°03'9 8.9
2014-Oct-23 00:33N 29°37' W 094°57'15 0.6
2014-Oct-21 21:29N 29°22' W 094°51'  
Track history (hours):
 
Tides and Currents Weather Stations Pressure Air Temp Water Temp Dewpoint Dewpoint Depression Visibility Wind Speed Wind Dir Waves Ship Positions

Valiant

Owner: PENN MARITIME INC, SEATTLE, WA. More information available from US FCC via Universal Licensing System and Coast Guard Vessel Documentation Center.

Last reported at 2014-Oct-29 10:03 UTC. Time now 2014-Nov-01 00:31 UTC.
Position N 29°15' W 094°42'.

Length 165 m; draft 6.6 m.

Type: Cargo ship. MMSI: 369350000.

Date/timePositionNaut miles runAvg speedWind from/ knotsBaromVisibWave heightAir tempDewpointWater temp
2014-Oct-29 10:03N 29°15' W 094°42'0 0.0
2014-Oct-29 08:33N 29°15' W 094°42'5 4.0
2014-Oct-29 07:19N 29°18' W 094°38'8 8.7
2014-Oct-29 06:23N 29°21' W 094°46'7 8.6
2014-Oct-29 05:33N 29°27' W 094°50'9 8.6
2014-Oct-29 04:33N 29°34' W 094°55'9 8.9
2014-Oct-29 03:33N 29°42' W 095°00'6 5.8
2014-Oct-29 02:33N 29°44' W 095°07'1 0.1
2014-Oct-28 14:09N 29°44' W 095°07'0 0.0
2014-Oct-28 13:24N 29°44' W 095°07'3 0.2
2014-Oct-27 22:33N 29°45' W 095°04'8 8.5
2014-Oct-27 21:33N 29°38' W 094°58'27 1.9
2014-Oct-27 07:14N 29°15' W 094°43'0 0.0
2014-Oct-26 17:17N 29°15' W 094°43'0 0.0
2014-Oct-26 06:29N 29°15' W 094°43'0 0.0
2014-Oct-25 17:29N 29°15' W 094°42'6 5.0
2014-Oct-25 16:18N 29°21' W 094°44'8 9.4
2014-Oct-25 15:30N 29°23' W 094°52'3 0.1
2014-Oct-24 06:30N 29°23' W 094°49'9 9.3
2014-Oct-24 05:33N 29°31' W 094°53'9 9.1
2014-Oct-24 04:33N 29°39' W 094°58'9 8.4
2014-Oct-24 03:33N 29°46' W 095°05'2 0.1
2014-Oct-23 02:10N 29°44' W 095°07'3 5.7
2014-Oct-23 01:33N 29°44' W 095°03'9 8.9
2014-Oct-23 00:33N 29°37' W 094°57'15 0.6
2014-Oct-21 21:29N 29°22' W 094°51'  

Dump ship's entire track history